sensor_id;sensor_type;location;lat;lon;timestamp;pressure;altitude;pressure_sealevel;temperature;humidity
73063;BME280;61230;46.328;19.972;2024-01-10T00:01:27;102207.03;;;-1.34;100.00
73063;BME280;61230;46.328;19.972;2024-01-10T00:03:55;102257.59;;;-1.20;100.00
73063;BME280;61230;46.328;19.972;2024-01-10T00:06:23;102252.41;;;-1.18;100.00
73063;BME280;61230;46.328;19.972;2024-01-10T00:08:51;102203.00;;;-1.53;100.00
73063;BME280;61230;46.328;19.972;2024-01-10T00:11:19;102260.19;;;-1.21;100.00
73063;BME280;61230;46.328;19.972;2024-01-10T00:13:47;102249.12;;;-1.29;100.00
73063;BME280;61230;46.328;19.972;2024-01-10T00:16:15;102250.87;;;-1.31;100.00
73063;BME280;61230;46.328;19.972;2024-01-10T00:18:42;102248.47;;;-1.45;100.00
73063;BME280;61230;46.328;19.972;2024-01-10T00:21:10;102245.88;;;-1.43;100.00
73063;BME280;61230;46.328;19.972;2024-01-10T00:23:38;102248.47;;;-1.46;100.00
73063;BME280;61230;46.328;19.972;2024-01-10T00:26:06;102245.16;;;-1.54;100.00
73063;BME280;61230;46.328;19.972;2024-01-10T00:28:34;102246.91;;;-1.56;100.00
73063;BME280;61230;46.328;19.972;2024-01-10T00:31:01;102246.94;;;-1.61;100.00
73063;BME280;61230;46.328;19.972;2024-01-10T00:33:29;102252.12;;;-1.62;100.00
73063;BME280;61230;46.328;19.972;2024-01-10T00:35:57;102254.97;;;-1.82;100.00
73063;BME280;61230;46.328;19.972;2024-01-10T00:38:25;102265.59;;;-2.11;100.00
73063;BME280;61230;46.328;19.972;2024-01-10T00:40:52;102268.88;;;-1.97;100.00
73063;BME280;61230;46.328;19.972;2024-01-10T00:43:20;102269.69;;;-1.90;100.00
73063;BME280;61230;46.328;19.972;2024-01-10T00:45:48;102269.09;;;-2.16;100.00
73063;BME280;61230;46.328;19.972;2024-01-10T00:48:16;102268.09;;;-2.05;100.00
73063;BME280;61230;46.328;19.972;2024-01-10T00:50:45;102274.03;;;-1.98;100.00
73063;BME280;61230;46.328;19.972;2024-01-10T00:53:12;102272.31;;;-1.98;100.00
73063;BME280;61230;46.328;19.972;2024-01-10T00:55:41;102272.41;;;-2.07;100.00
73063;BME280;61230;46.328;19.972;2024-01-10T00:58:08;102275.16;;;-2.22;100.00
73063;BME280;61230;46.328;19.972;2024-01-10T01:00:36;102270.75;;;-2.12;100.00
73063;BME280;61230;46.328;19.972;2024-01-10T01:03:04;102279.28;;;-2.06;100.00
73063;BME280;61230;46.328;19.972;2024-01-10T01:05:32;102272.44;;;-2.08;100.00
73063;BME280;61230;46.328;19.972;2024-01-10T01:08:00;102273.31;;;-2.12;100.00
73063;BME280;61230;46.328;19.972;2024-01-10T01:10:27;102270.75;;;-2.15;100.00
73063;BME280;61230;46.328;19.972;2024-01-10T01:12:55;102272.50;;;-2.17;100.00
73063;BME280;61230;46.328;19.972;2024-01-10T01:15:23;102224.00;;;-2.64;100.00
73063;BME280;61230;46.328;19.972;2024-01-10T01:17:51;102218.12;;;-2.81;100.00
73063;BME280;61230;46.328;19.972;2024-01-10T01:20:18;102227.50;;;-2.74;100.00
73063;BME280;61230;46.328;19.972;2024-01-10T01:22:46;102223.31;;;-2.87;100.00
73063;BME280;61230;46.328;19.972;2024-01-10T01:25:14;102279.78;;;-2.59;100.00
73063;BME280;61230;46.328;19.972;2024-01-10T01:27:42;102275.44;;;-2.57;100.00
73063;BME280;61230;46.328;19.972;2024-01-10T01:30:09;102268.66;;;-2.68;100.00
73063;BME280;61230;46.328;19.972;2024-01-10T01:32:39;102263.53;;;-2.68;100.00
73063;BME280;61230;46.328;19.972;2024-01-10T01:35:06;102262.81;;;-2.87;100.00
73063;BME280;61230;46.328;19.972;2024-01-10T01:37:34;102209.75;;;-3.08;100.00
73063;BME280;61230;46.328;19.972;2024-01-10T01:40:02;102260.97;;;-2.71;100.00
73063;BME280;61230;46.328;19.972;2024-01-10T01:42:30;102266.91;;;-2.62;100.00
73063;BME280;61230;46.328;19.972;2024-01-10T01:44:58;102266.97;;;-2.71;100.00
73063;BME280;61230;46.328;19.972;2024-01-10T01:47:26;102260.25;;;-2.87;100.00
73063;BME280;61230;46.328;19.972;2024-01-10T01:49:54;102261.00;;;-2.74;100.00
73063;BME280;61230;46.328;19.972;2024-01-10T01:52:22;102262.69;;;-2.75;100.00
73063;BME280;61230;46.328;19.972;2024-01-10T01:54:51;102268.72;;;-2.73;100.00
73063;BME280;61230;46.328;19.972;2024-01-10T01:57:18;102248.16;;;-2.80;100.00
73063;BME280;61230;46.328;19.972;2024-01-10T01:59:46;102255.00;;;-2.78;100.00
73063;BME280;61230;46.328;19.972;2024-01-10T02:02:16;102260.25;;;-2.87;100.00
73063;BME280;61230;46.328;19.972;2024-01-10T02:04:46;102200.38;;;-3.18;100.00
73063;BME280;61230;46.328;19.972;2024-01-10T02:07:14;102238.03;;;-3.02;100.00
73063;BME280;61230;46.328;19.972;2024-01-10T02:09:42;102244.81;;;-2.90;100.00
73063;BME280;61230;46.328;19.972;2024-01-10T02:12:09;102254.34;;;-3.04;100.00
73063;BME280;61230;46.328;19.972;2024-01-10T02:14:37;102245.72;;;-2.99;100.00
73063;BME280;61230;46.328;19.972;2024-01-10T02:17:05;102242.28;;;-3.01;100.00
73063;BME280;61230;46.328;19.972;2024-01-10T02:19:33;102245.72;;;-2.99;100.00
73063;BME280;61230;46.328;19.972;2024-01-10T02:22:02;102250.03;;;-3.02;100.00
73063;BME280;61230;46.328;19.972;2024-01-10T02:24:31;102244.94;;;-3.07;100.00
73063;BME280;61230;46.328;19.972;2024-01-10T02:26:59;102241.50;;;-3.10;100.00
73063;BME280;61230;46.328;19.972;2024-01-10T02:29:27;102245.00;;;-3.20;100.00
73063;BME280;61230;46.328;19.972;2024-01-10T02:31:54;102240.75;;;-3.27;100.00
73063;BME280;61230;46.328;19.972;2024-01-10T02:34:23;102244.13;;;-3.18;100.00
73063;BME280;61230;46.328;19.972;2024-01-10T02:36:51;102242.44;;;-3.26;100.00
73063;BME280;61230;46.328;19.972;2024-01-10T02:39:18;102247.59;;;-3.25;100.00
73063;BME280;61230;46.328;19.972;2024-01-10T02:41:46;102247.63;;;-3.28;100.00
73063;BME280;61230;46.328;19.972;2024-01-10T02:44:14;102245.03;;;-3.25;100.00
73063;BME280;61230;46.328;19.972;2024-01-10T02:46:42;102242.44;;;-3.23;100.00
73063;BME280;61230;46.328;19.972;2024-01-10T02:49:09;102245.91;;;-3.29;100.00
73063;BME280;61230;46.328;19.972;2024-01-10T02:51:37;102244.25;;;-3.36;100.00
73063;BME280;61230;46.328;19.972;2024-01-10T02:54:04;102196.44;;;-3.79;100.00
73063;BME280;61230;46.328;19.972;2024-01-10T02:56:32;102243.41;;;-3.45;100.00
73063;BME280;61230;46.328;19.972;2024-01-10T02:59:00;102245.22;;;-3.60;100.00
73063;BME280;61230;46.328;19.972;2024-01-10T03:01:28;102193.97;;;-4.03;100.00
73063;BME280;61230;46.328;19.972;2024-01-10T03:03:55;102245.22;;;-3.58;100.00
73063;BME280;61230;46.328;19.972;2024-01-10T03:06:23;102245.28;;;-3.75;100.00
73063;BME280;61230;46.328;19.972;2024-01-10T03:08:52;102240.94;;;-3.65;100.00
73063;BME280;61230;46.328;19.972;2024-01-10T03:11:19;102244.31;;;-3.51;100.00
73063;BME280;61230;46.328;19.972;2024-01-10T03:13:49;102240.84;;;-3.41;100.00
73063;BME280;61230;46.328;19.972;2024-01-10T03:16:17;102230.63;;;-3.56;100.00
73063;BME280;61230;46.328;19.972;2024-01-10T03:18:46;102244.31;;;-3.51;100.00
73063;BME280;61230;46.328;19.972;2024-01-10T03:21:14;102239.16;;;-3.51;100.00
73063;BME280;61230;46.328;19.972;2024-01-10T03:23:41;102186.19;;;-3.88;100.00
73063;BME280;61230;46.328;19.972;2024-01-10T03:26:09;102248.59;;;-3.55;100.00
73063;BME280;61230;46.328;19.972;2024-01-10T03:28:37;102252.06;;;-3.60;100.00
73063;BME280;61230;46.328;19.972;2024-01-10T03:31:05;102246.91;;;-3.60;100.00
73063;BME280;61230;46.328;19.972;2024-01-10T03:33:32;102246.06;;;-3.58;100.00
73063;BME280;61230;46.328;19.972;2024-01-10T03:36:00;102190.50;;;-3.93;100.00
73063;BME280;61230;46.328;19.972;2024-01-10T03:38:28;102246.94;;;-3.59;100.00
73063;BME280;61230;46.328;19.972;2024-01-10T03:40:56;102251.22;;;-3.59;100.00
73063;BME280;61230;46.328;19.972;2024-01-10T03:43:24;102235.81;;;-3.64;100.00
73063;BME280;61230;46.328;19.972;2024-01-10T03:45:51;102248.66;;;-3.68;100.00
73063;BME280;61230;46.328;19.972;2024-01-10T03:48:19;102192.28;;;-4.09;100.00
73063;BME280;61230;46.328;19.972;2024-01-10T03:50:47;102242.75;;;-3.81;100.00
73063;BME280;61230;46.328;19.972;2024-01-10T03:53:15;102244.44;;;-3.78;100.00
73063;BME280;61230;46.328;19.972;2024-01-10T03:55:42;102228.19;;;-3.88;100.00
73063;BME280;61230;46.328;19.972;2024-01-10T03:58:10;102247.06;;;-3.92;100.00
73063;BME280;61230;46.328;19.972;2024-01-10T04:00:38;102248.78;;;-3.98;100.00
73063;BME280;61230;46.328;19.972;2024-01-10T04:03:06;102245.38;;;-3.97;100.00
73063;BME280;61230;46.328;19.972;2024-01-10T04:05:33;102247.94;;;-4.00;100.00
73063;BME280;61230;46.328;19.972;2024-01-10T04:08:01;102249.63;;;-3.96;100.00
73063;BME280;61230;46.328;19.972;2024-01-10T04:10:30;102246.22;;;-4.01;100.00
73063;BME280;61230;46.328;19.972;2024-01-10T04:12:57;102249.66;;;-4.07;100.00
73063;BME280;61230;46.328;19.972;2024-01-10T04:15:25;102248.81;;;-4.04;100.00
73063;BME280;61230;46.328;19.972;2024-01-10T04:17:53;102254.78;;;-4.02;100.00
73063;BME280;61230;46.328;19.972;2024-01-10T04:20:20;102253.97;;;-4.06;100.00
73063;BME280;61230;46.328;19.972;2024-01-10T04:22:48;102201.81;;;-4.49;100.00
73063;BME280;61230;46.328;19.972;2024-01-10T04:25:16;102262.56;;;-4.21;100.00
73063;BME280;61230;46.328;19.972;2024-01-10T04:27:44;102262.56;;;-4.27;100.00
73063;BME280;61230;46.328;19.972;2024-01-10T04:30:12;102269.41;;;-4.27;100.00
73063;BME280;61230;46.328;19.972;2024-01-10T04:32:40;102257.41;;;-4.19;100.00
73063;BME280;61230;46.328;19.972;2024-01-10T04:35:08;102262.53;;;-4.19;100.00
73063;BME280;61230;46.328;19.972;2024-01-10T04:37:35;102263.41;;;-4.22;100.00
73063;BME280;61230;46.328;19.972;2024-01-10T04:40:04;102261.69;;;-4.33;100.00
73063;BME280;61230;46.328;19.972;2024-01-10T04:42:35;102272.81;;;-4.28;100.00
73063;BME280;61230;46.328;19.972;2024-01-10T04:45:04;102271.09;;;-4.25;100.00
73063;BME280;61230;46.328;19.972;2024-01-10T04:47:31;102268.53;;;-4.22;100.00
73063;BME280;61230;46.328;19.972;2024-01-10T04:49:59;102267.66;;;-4.19;100.00
73063;BME280;61230;46.328;19.972;2024-01-10T04:52:27;102209.50;;;-4.52;100.00
73063;BME280;61230;46.328;19.972;2024-01-10T04:54:54;102274.50;;;-4.17;100.00
73063;BME280;61230;46.328;19.972;2024-01-10T04:57:22;102266.81;;;-4.23;100.00
73063;BME280;61230;46.328;19.972;2024-01-10T04:59:50;102269.41;;;-4.27;100.00
73063;BME280;61230;46.328;19.972;2024-01-10T05:02:18;102265.13;;;-4.24;100.00
73063;BME280;61230;46.328;19.972;2024-01-10T05:04:45;102267.69;;;-4.24;100.00
73063;BME280;61230;46.328;19.972;2024-01-10T05:07:13;102274.56;;;-4.35;100.00
73063;BME280;61230;46.328;19.972;2024-01-10T05:09:41;102273.69;;;-4.34;100.00
73063;BME280;61230;46.328;19.972;2024-01-10T05:12:09;102213.78;;;-4.68;100.00
73063;BME280;61230;46.328;19.972;2024-01-10T05:14:36;102272.81;;;-4.31;100.00
73063;BME280;61230;46.328;19.972;2024-01-10T05:17:04;102275.38;;;-4.25;100.00
73063;BME280;61230;46.328;19.972;2024-01-10T05:19:32;102275.38;;;-4.31;100.00
73063;BME280;61230;46.328;19.972;2024-01-10T05:22:00;102227.47;;;-4.52;100.00
73063;BME280;61230;46.328;19.972;2024-01-10T05:24:30;102284.81;;;-4.18;100.00
73063;BME280;61230;46.328;19.972;2024-01-10T05:26:58;102282.28;;;-4.35;100.00
73063;BME280;61230;46.328;19.972;2024-01-10T05:29:26;102291.66;;;-4.34;100.00
73063;BME280;61230;46.328;19.972;2024-01-10T05:31:54;102279.72;;;-4.48;100.00
73063;BME280;61230;46.328;19.972;2024-01-10T05:34:22;102285.66;;;-4.31;100.00
73063;BME280;61230;46.328;19.972;2024-01-10T05:36:50;102261.69;;;-4.39;100.00
73063;BME280;61230;46.328;19.972;2024-01-10T05:39:18;102289.09;;;-4.82;100.00
73063;BME280;61230;46.328;19.972;2024-01-10T05:41:48;102287.37;;;-4.89;100.00
73063;BME280;61230;46.328;19.972;2024-01-10T05:44:16;102295.09;;;-4.67;100.00
73063;BME280;61230;46.328;19.972;2024-01-10T05:46:44;102241.16;;;-5.01;100.00
73063;BME280;61230;46.328;19.972;2024-01-10T05:49:12;102290.81;;;-4.72;100.00
73063;BME280;61230;46.328;19.972;2024-01-10T05:51:40;102284.81;;;-4.85;100.00
73063;BME280;61230;46.328;19.972;2024-01-10T05:54:08;102298.50;;;-4.68;100.00
73063;BME280;61230;46.328;19.972;2024-01-10T05:56:36;102295.94;;;-4.77;100.00
73063;BME280;61230;46.328;19.972;2024-01-10T05:59:04;102292.53;;;-4.74;100.00
73063;BME280;61230;46.328;19.972;2024-01-10T06:01:31;102232.63;;;-4.97;100.00
73063;BME280;61230;46.328;19.972;2024-01-10T06:03:59;102236.03;;;-4.92;100.00
73063;BME280;61230;46.328;19.972;2024-01-10T06:06:28;102294.22;;;-4.62;100.00
73063;BME280;61230;46.328;19.972;2024-01-10T06:08:56;102239.47;;;-5.02;100.00
73063;BME280;61230;46.328;19.972;2024-01-10T06:11:24;102289.97;;;-4.73;100.00
73063;BME280;61230;46.328;19.972;2024-01-10T06:13:51;102232.63;;;-4.97;100.00
73063;BME280;61230;46.328;19.972;2024-01-10T06:16:24;102234.31;;;-5.01;100.00
73063;BME280;61230;46.328;19.972;2024-01-10T06:18:51;102232.59;;;-5.15;100.00
73063;BME280;61230;46.328;19.972;2024-01-10T06:21:19;102300.22;;;-4.83;100.00
73063;BME280;61230;46.328;19.972;2024-01-10T06:23:48;102295.97;;;-4.80;100.00
73063;BME280;61230;46.328;19.972;2024-01-10T06:26:15;102295.13;;;-4.71;100.00
73063;BME280;61230;46.328;19.972;2024-01-10T06:28:43;102242.00;;;-5.07;100.00
73063;BME280;61230;46.328;19.972;2024-01-10T06:31:11;102307.06;;;-4.84;100.00
73063;BME280;61230;46.328;19.972;2024-01-10T06:33:39;102311.31;;;-4.87;100.00
73063;BME280;61230;46.328;19.972;2024-01-10T06:36:07;102314.78;;;-4.78;100.00
73063;BME280;61230;46.328;19.972;2024-01-10T06:38:35;102313.03;;;-4.85;100.00
73063;BME280;61230;46.328;19.972;2024-01-10T06:41:09;102317.34;;;-4.84;100.00
73063;BME280;61230;46.328;19.972;2024-01-10T06:43:38;102324.22;;;-4.63;100.00
73063;BME280;61230;46.328;19.972;2024-01-10T06:46:06;102316.47;;;-4.74;100.00
73063;BME280;61230;46.328;19.972;2024-01-10T06:48:34;102325.91;;;-4.63;100.00
73063;BME280;61230;46.328;19.972;2024-01-10T06:51:09;102317.38;;;-4.58;100.00
73063;BME280;61230;46.328;19.972;2024-01-10T06:53:40;102260.03;;;-4.83;100.00
73063;BME280;61230;46.328;19.972;2024-01-10T06:56:09;102321.66;;;-4.46;100.00
73063;BME280;61230;46.328;19.972;2024-01-10T06:58:38;102325.06;;;-4.40;100.00
73063;BME280;61230;46.328;19.972;2024-01-10T07:01:11;102331.06;;;-4.24;100.00
73063;BME280;61230;46.328;19.972;2024-01-10T07:03:43;102328.50;;;-4.24;100.00
73063;BME280;61230;46.328;19.972;2024-01-10T07:06:15;102329.34;;;-4.30;100.00
73063;BME280;61230;46.328;19.972;2024-01-10T07:09:04;102332.78;;;-4.26;100.00
73063;BME280;61230;46.328;19.972;2024-01-10T07:11:34;102318.22;;;-4.18;100.00
73063;BME280;61230;46.328;19.972;2024-01-10T07:14:04;102267.69;;;-4.42;100.00
73063;BME280;61230;46.328;19.972;2024-01-10T07:16:34;102329.34;;;-4.07;100.00
73063;BME280;61230;46.328;19.972;2024-01-10T07:19:04;102337.91;;;-3.97;100.00
73063;BME280;61230;46.328;19.972;2024-01-10T07:21:33;102297.63;;;-4.04;100.00
73063;BME280;61230;46.328;19.972;2024-01-10T07:24:01;102329.31;;;-3.84;100.00
73063;BME280;61230;46.328;19.972;2024-01-10T07:26:30;102332.75;;;-3.87;100.00
73063;BME280;61230;46.328;19.972;2024-01-10T07:28:59;102331.87;;;-3.84;100.00
73063;BME280;61230;46.328;19.972;2024-01-10T07:31:30;102323.31;;;-3.80;100.00
73063;BME280;61230;46.328;19.972;2024-01-10T07:33:59;102333.53;;;-3.68;100.00
73063;BME280;61230;46.328;19.972;2024-01-10T07:36:27;102324.94;;;-3.58;100.00
73063;BME280;61230;46.328;19.972;2024-01-10T07:38:55;102325.75;;;-3.52;100.00
73063;BME280;61230;46.328;19.972;2024-01-10T07:41:23;102320.56;;;-3.36;100.00
73063;BME280;61230;46.328;19.972;2024-01-10T07:43:51;102321.47;;;-3.51;100.00
73063;BME280;61230;46.328;19.972;2024-01-10T07:46:19;102271.81;;;-3.68;100.00
73063;BME280;61230;46.328;19.972;2024-01-10T07:48:47;102334.34;;;-3.46;100.00
73063;BME280;61230;46.328;19.972;2024-01-10T07:51:15;102336.06;;;-3.49;100.00
73063;BME280;61230;46.328;19.972;2024-01-10T07:53:43;102330.03;;;-3.38;100.00
73063;BME280;61230;46.328;19.972;2024-01-10T07:56:10;102324.06;;;-3.53;100.00
73063;BME280;61230;46.328;19.972;2024-01-10T07:58:40;102276.03;;;-3.47;100.00
73063;BME280;61230;46.328;19.972;2024-01-10T08:01:08;102334.16;;;-3.06;100.00
73063;BME280;61230;46.328;19.972;2024-01-10T08:03:39;102331.59;;;-3.12;100.00
73063;BME280;61230;46.328;19.972;2024-01-10T08:06:07;102331.63;;;-3.15;100.00
73063;BME280;61230;46.328;19.972;2024-01-10T08:08:50;102334.19;;;-3.10;100.00
73063;BME280;61230;46.328;19.972;2024-01-10T08:11:18;102339.28;;;-3.01;100.00
73063;BME280;61230;46.328;19.972;2024-01-10T08:13:46;102336.69;;;-3.00;100.00
73063;BME280;61230;46.328;19.972;2024-01-10T08:16:14;102328.91;;;-2.87;100.00
73063;BME280;61230;46.328;19.972;2024-01-10T08:18:42;102332.19;;;-2.64;100.00
73063;BME280;61230;46.328;19.972;2024-01-10T08:21:10;102330.25;;;-2.37;100.00
73063;BME280;61230;46.328;19.972;2024-01-10T08:23:38;102327.63;;;-2.32;100.00
73063;BME280;61230;46.328;19.972;2024-01-10T08:26:08;102333.72;;;-2.41;100.00
73063;BME280;61230;46.328;19.972;2024-01-10T08:28:36;102326.91;;;-2.49;100.00
73063;BME280;61230;46.328;19.972;2024-01-10T08:31:04;102332.91;;;-2.44;100.00
73063;BME280;61230;46.328;19.972;2024-01-10T08:33:33;102331.16;;;-2.42;100.00
73063;BME280;61230;46.328;19.972;2024-01-10T08:36:00;102340.47;;;-2.24;100.00
73063;BME280;61230;46.328;19.972;2024-01-10T08:38:28;102282.81;;;-2.13;100.00
73063;BME280;61230;46.328;19.972;2024-01-10T08:40:56;102330.84;;;-2.06;100.00
73063;BME280;61230;46.328;19.972;2024-01-10T08:43:24;102341.69;;;-1.72;100.00
73063;BME280;61230;46.328;19.972;2024-01-10T08:45:52;102343.19;;;-1.51;100.00
73063;BME280;61230;46.328;19.972;2024-01-10T08:48:20;102348.78;;;-1.94;100.00
73063;BME280;61230;46.328;19.972;2024-01-10T08:50:48;102289.72;;;-2.19;100.00
73063;BME280;61230;46.328;19.972;2024-01-10T08:53:16;102337.88;;;-1.38;100.00
73063;BME280;61230;46.328;19.972;2024-01-10T08:55:44;102354.91;;;-1.25;100.00
73063;BME280;61230;46.328;19.972;2024-01-10T08:58:11;102341.13;;;-1.22;100.00
73063;BME280;61230;46.328;19.972;2024-01-10T09:00:40;102344.87;;;-1.49;100.00
73063;BME280;61230;46.328;19.972;2024-01-10T09:03:07;102298.69;;;-1.71;100.00
73063;BME280;61230;46.328;19.972;2024-01-10T09:05:35;102343.47;;;-1.04;100.00
73063;BME280;61230;46.328;19.972;2024-01-10T09:08:03;102346.22;;;-1.18;100.00
73063;BME280;61230;46.328;19.972;2024-01-10T09:10:31;102350.72;;;-1.35;100.00
73063;BME280;61230;46.328;19.972;2024-01-10T09:12:59;102341.91;;;-1.17;100.00
73063;BME280;61230;46.328;19.972;2024-01-10T09:15:27;102339.06;;;-0.99;100.00
73063;BME280;61230;46.328;19.972;2024-01-10T09:17:54;102333.00;;;-0.95;100.00
73063;BME280;61230;46.328;19.972;2024-01-10T09:20:22;102340.19;;;-0.54;100.00
73063;BME280;61230;46.328;19.972;2024-01-10T09:22:51;102333.41;;;-0.63;100.00
73063;BME280;61230;46.328;19.972;2024-01-10T09:25:19;102328.97;;;-0.56;100.00
73063;BME280;61230;46.328;19.972;2024-01-10T09:27:46;102326.69;;;-0.74;100.00
73063;BME280;61230;46.328;19.972;2024-01-10T09:30:15;102320.50;;;-0.64;100.00
73063;BME280;61230;46.328;19.972;2024-01-10T09:32:45;102323.91;;;-0.61;100.00
73063;BME280;61230;46.328;19.972;2024-01-10T09:35:14;102332.97;;;-0.35;100.00
73063;BME280;61230;46.328;19.972;2024-01-10T09:37:42;102270.94;;;-0.89;100.00
73063;BME280;61230;46.328;19.972;2024-01-10T09:40:10;102323.34;;;-0.27;99.32
73063;BME280;61230;46.328;19.972;2024-01-10T09:42:40;102313.91;;;-0.30;98.81
73063;BME280;61230;46.328;19.972;2024-01-10T09:45:09;102316.31;;;-0.19;98.92
73063;BME280;61230;46.328;19.972;2024-01-10T09:47:39;102312.34;;;0.09;98.62
73063;BME280;61230;46.328;19.972;2024-01-10T09:50:07;102323.31;;;-0.24;97.01
73063;BME280;61230;46.328;19.972;2024-01-10T09:53:06;102322.16;;;-0.08;98.51
73063;BME280;61230;46.328;19.972;2024-01-10T09:55:37;102324.97;;;0.26;90.22
73063;BME280;61230;46.328;19.972;2024-01-10T09:58:08;102321.34;;;0.36;88.81
73063;BME280;61230;46.328;19.972;2024-01-10T10:00:39;102316.50;;;0.19;88.83
73063;BME280;61230;46.328;19.972;2024-01-10T10:03:08;102319.69;;;0.33;87.06
73063;BME280;61230;46.328;19.972;2024-01-10T10:05:39;102307.66;;;0.31;89.70
73063;BME280;61230;46.328;19.972;2024-01-10T10:08:11;102320.16;;;0.53;86.11
73063;BME280;61230;46.328;19.972;2024-01-10T10:10:40;102311.47;;;0.54;85.09
73063;BME280;61230;46.328;19.972;2024-01-10T10:13:25;102306.91;;;0.67;80.89
73063;BME280;61230;46.328;19.972;2024-01-10T10:16:00;102302.59;;;0.66;83.75
73063;BME280;61230;46.328;19.972;2024-01-10T10:18:29;102305.63;;;0.86;80.22
73063;BME280;61230;46.328;19.972;2024-01-10T10:21:11;102296.91;;;0.90;82.37
73063;BME280;61230;46.328;19.972;2024-01-10T10:23:42;102248.88;;;0.36;78.92
73063;BME280;61230;46.328;19.972;2024-01-10T10:26:15;102295.44;;;0.79;80.92
73063;BME280;61230;46.328;19.972;2024-01-10T10:28:50;102290.91;;;0.88;78.24
73063;BME280;61230;46.328;19.972;2024-01-10T10:31:20;102288.78;;;1.07;77.87
73063;BME280;61230;46.328;19.972;2024-01-10T10:33:49;102292.50;;;1.32;78.71
73063;BME280;61230;46.328;19.972;2024-01-10T10:36:20;102282.06;;;0.98;76.79
73063;BME280;61230;46.328;19.972;2024-01-10T10:38:49;102291.37;;;1.07;76.62
73063;BME280;61230;46.328;19.972;2024-01-10T10:41:18;102293.44;;;1.28;75.42
73063;BME280;61230;46.328;19.972;2024-01-10T10:43:48;102282.78;;;1.03;77.66
73063;BME280;61230;46.328;19.972;2024-01-10T10:46:17;102281.91;;;1.41;74.52
73063;BME280;61230;46.328;19.972;2024-01-10T10:48:46;102277.16;;;1.58;74.80
73063;BME280;61230;46.328;19.972;2024-01-10T10:51:19;102275.09;;;1.71;74.63
73063;BME280;61230;46.328;19.972;2024-01-10T10:53:50;102273.22;;;1.42;71.17
73063;BME280;61230;46.328;19.972;2024-01-10T10:56:18;102268.62;;;1.53;73.14
73063;BME280;61230;46.328;19.972;2024-01-10T10:58:46;102268.56;;;1.21;72.07
73063;BME280;61230;46.328;19.972;2024-01-10T11:01:14;102229.84;;;1.49;71.59
73063;BME280;61230;46.328;19.972;2024-01-10T11:03:43;102256.66;;;1.48;72.04
73063;BME280;61230;46.328;19.972;2024-01-10T11:06:12;102259.44;;;1.42;73.22
73063;BME280;61230;46.328;19.972;2024-01-10T11:08:50;102251.22;;;1.58;72.25
73063;BME280;61230;46.328;19.972;2024-01-10T11:11:31;102258.75;;;1.67;73.42
73063;BME280;61230;46.328;19.972;2024-01-10T11:20:14;102251.66;;;1.74;73.30
73063;BME280;61230;46.328;19.972;2024-01-10T11:25:42;102241.59;;;1.96;72.00
73063;BME280;61230;46.328;19.972;2024-01-10T11:28:12;102243.72;;;2.12;70.74
73063;BME280;61230;46.328;19.972;2024-01-10T11:30:50;102234.69;;;1.62;71.92
73063;BME280;61230;46.328;19.972;2024-01-10T11:33:25;102237.50;;;1.53;71.27
73063;BME280;61230;46.328;19.972;2024-01-10T11:36:10;102199.13;;;0.98;73.20
73063;BME280;61230;46.328;19.972;2024-01-10T11:39:05;102231.56;;;1.50;71.93
73063;BME280;61230;46.328;19.972;2024-01-10T11:41:36;102224.00;;;1.41;73.06
73063;BME280;61230;46.328;19.972;2024-01-10T11:46:40;102166.22;;;1.68;71.04
73063;BME280;61230;46.328;19.972;2024-01-10T11:49:09;102212.59;;;1.80;69.92
73063;BME280;61230;46.328;19.972;2024-01-10T11:51:37;102164.06;;;1.84;68.43
73063;BME280;61230;46.328;19.972;2024-01-10T11:54:05;102196.59;;;2.26;68.94
73063;BME280;61230;46.328;19.972;2024-01-10T11:56:40;102217.13;;;1.72;67.61
73063;BME280;61230;46.328;19.972;2024-01-10T11:59:11;102203.84;;;1.18;68.60
73063;BME280;61230;46.328;19.972;2024-01-10T12:01:40;102205.81;;;1.74;68.50
73063;BME280;61230;46.328;19.972;2024-01-10T12:04:09;102200.94;;;1.30;70.13
73063;BME280;61230;46.328;19.972;2024-01-10T12:06:47;102205.50;;;1.21;70.40
73063;BME280;61230;46.328;19.972;2024-01-10T12:09:15;102204.62;;;1.54;71.09
73063;BME280;61230;46.328;19.972;2024-01-10T12:11:44;102204.44;;;1.94;68.53
73063;BME280;61230;46.328;19.972;2024-01-10T12:14:12;102199.03;;;2.01;68.49
73063;BME280;61230;46.328;19.972;2024-01-10T12:16:40;102192.16;;;2.29;67.98
73063;BME280;61230;46.328;19.972;2024-01-10T12:19:08;102190.31;;;2.33;68.36
73063;BME280;61230;46.328;19.972;2024-01-10T12:21:35;102208.03;;;1.88;69.99
73063;BME280;61230;46.328;19.972;2024-01-10T12:24:05;102199.31;;;1.91;70.08
73063;BME280;61230;46.328;19.972;2024-01-10T12:26:36;102190.81;;;2.16;69.61
73063;BME280;61230;46.328;19.972;2024-01-10T12:29:11;102184.97;;;2.10;68.04
73063;BME280;61230;46.328;19.972;2024-01-10T12:31:39;102180.69;;;2.37;67.27
73063;BME280;61230;46.328;19.972;2024-01-10T12:34:07;102183.50;;;2.58;67.05
73063;BME280;61230;46.328;19.972;2024-01-10T12:36:37;102184.75;;;2.45;67.19
73063;BME280;61230;46.328;19.972;2024-01-10T12:39:05;102130.78;;;2.27;66.10
73063;BME280;61230;46.328;19.972;2024-01-10T12:41:34;102172.94;;;1.75;67.93
73063;BME280;61230;46.328;19.972;2024-01-10T12:44:04;102134.63;;;1.22;68.89
73063;BME280;61230;46.328;19.972;2024-01-10T12:46:32;102182.94;;;1.58;68.86
73063;BME280;61230;46.328;19.972;2024-01-10T12:49:03;102124.03;;;1.61;69.44
73063;BME280;61230;46.328;19.972;2024-01-10T12:51:34;102172.94;;;1.75;69.61
73063;BME280;61230;46.328;19.972;2024-01-10T12:54:03;102162.37;;;2.12;69.29
73063;BME280;61230;46.328;19.972;2024-01-10T12:56:31;102170.66;;;2.24;68.75